createdAt,value
2023-03-23T16:00:13.919Z,3.77
2023-03-23T16:02:47.008Z,3.90
2023-03-23T16:05:22.630Z,4.20
2023-03-23T16:07:56.913Z,4.10
2023-03-23T16:10:30.306Z,4.83
2023-03-23T16:13:04.430Z,4.47
2023-03-23T16:15:33.405Z,4.67
2023-03-23T16:18:10.881Z,4.83
2023-03-23T16:20:47.792Z,4.97
2023-03-23T16:23:29.690Z,4.63
2023-03-23T16:26:00.697Z,4.90
2023-03-23T16:28:37.343Z,5.60
2023-03-23T16:31:12.039Z,5.33
2023-03-23T16:33:49.076Z,4.03
2023-03-23T16:36:22.836Z,4.70
2023-03-23T16:38:57.029Z,5.10
2023-03-23T16:41:28.395Z,5.47
2023-03-23T16:43:58.564Z,5.20
2023-03-23T16:46:28.983Z,5.37
2023-03-23T16:49:00.882Z,5.20
2023-03-23T16:51:31.286Z,5.77
2023-03-23T16:54:06.405Z,5.97
2023-03-23T16:56:35.640Z,4.83
2023-03-23T16:59:10.837Z,5.40
2023-03-23T17:01:52.441Z,5.90
2023-03-23T17:04:34.197Z,6.73
2023-03-23T17:07:03.650Z,5.50
2023-03-23T17:09:37.238Z,6.23
2023-03-23T17:12:09.171Z,6.03
2023-03-23T17:14:41.498Z,6.73
2023-03-23T17:17:18.920Z,6.70
2023-03-23T17:20:00.922Z,7.10
2023-03-23T17:22:31.043Z,7.13
2023-03-23T17:25:10.318Z,7.00
2023-03-23T17:27:45.146Z,7.20
2023-03-23T17:30:18.336Z,7.10
2023-03-23T17:33:12.635Z,7.00
2023-03-23T17:35:47.982Z,7.53
2023-03-23T17:38:19.455Z,7.63
2023-03-23T17:41:08.221Z,8.13
2023-03-23T17:43:41.224Z,9.13
2023-03-23T17:46:11.954Z,9.70
2023-03-23T17:48:49.144Z,11.73
2023-03-23T17:51:22.171Z,9.77
2023-03-23T17:54:03.416Z,11.40
2023-03-23T17:56:35.114Z,12.10
2023-03-23T17:59:06.828Z,11.30
2023-03-23T18:01:49.796Z,10.45
2023-03-23T18:04:41.153Z,10.00
2023-03-23T18:07:24.873Z,11.83
2023-03-23T18:12:50.082Z,10.40
2023-03-23T18:15:28.249Z,9.93
2023-03-23T18:18:27.160Z,10.57
2023-03-23T18:21:29.956Z,9.60
2023-03-23T18:24:00.237Z,9.90
2023-03-23T18:26:41.283Z,10.43
2023-03-23T18:29:27.136Z,9.90
2023-03-23T18:32:22.084Z,9.93
2023-03-23T18:35:00.559Z,10.40
2023-03-23T18:37:40.144Z,10.80
2023-03-23T18:40:26.025Z,11.23
2023-03-23T18:43:01.021Z,11.47
2023-03-23T18:45:39.979Z,11.17
2023-03-23T18:48:28.664Z,10.80
2023-03-23T18:51:03.152Z,10.83
2023-03-23T18:53:50.185Z,11.77
2023-03-23T18:56:33.931Z,12.33
2023-03-23T18:59:09.712Z,12.77
2023-03-23T19:01:46.291Z,12.25
2023-03-23T19:04:27.769Z,13.27
2023-03-23T19:07:02.835Z,12.95
2023-03-23T19:09:38.050Z,14.80
2023-03-23T19:12:19.971Z,12.80
2023-03-23T19:15:02.727Z,13.60
2023-03-23T19:17:34.188Z,12.80
2023-03-23T19:20:07.211Z,12.48
2023-03-23T19:22:38.171Z,12.47
2023-03-23T19:25:28.939Z,12.83
2023-03-23T19:30:44.905Z,13.10
2023-03-23T19:33:20.124Z,12.80
2023-03-23T19:36:10.827Z,14.50
2023-03-23T19:38:49.280Z,12.73
2023-03-23T19:41:36.341Z,13.23
2023-03-23T19:44:14.576Z,12.23
2023-03-23T19:47:10.052Z,13.00
2023-03-23T19:50:08.277Z,12.85
2023-03-23T19:52:42.162Z,12.03
2023-03-23T19:55:15.757Z,13.70
2023-03-23T19:57:54.252Z,13.80
2023-03-23T20:00:35.841Z,13.87
2023-03-23T20:03:23.271Z,12.97
2023-03-23T20:06:10.061Z,13.10
2023-03-23T20:09:10.168Z,13.50
2023-03-23T20:11:43.842Z,14.47
2023-03-23T20:14:29.393Z,14.47
2023-03-23T20:17:03.733Z,13.30
2023-03-23T20:19:40.283Z,13.40
2023-03-23T20:22:15.053Z,13.97
2023-03-23T20:24:48.291Z,13.63
2023-03-23T20:27:23.398Z,14.00
2023-03-23T20:30:20.114Z,13.02
2023-03-23T20:32:59.613Z,14.55
2023-03-23T20:35:38.136Z,17.73
2023-03-23T20:38:09.539Z,16.43
2023-03-23T20:40:41.049Z,16.17
2023-03-23T20:43:17.518Z,14.80
2023-03-23T20:45:51.168Z,16.27
2023-03-23T20:48:28.621Z,14.17
2023-03-23T20:51:11.380Z,13.23
2023-03-23T20:53:41.417Z,12.10
2023-03-23T20:56:12.286Z,12.07
2023-03-23T20:58:48.882Z,11.00
2023-03-23T21:01:28.630Z,10.27
2023-03-23T21:04:16.754Z,9.50
2023-03-23T21:06:55.797Z,10.30
2023-03-23T21:09:26.141Z,10.57
2023-03-23T21:11:58.285Z,10.00
2023-03-23T21:14:28.245Z,9.80
2023-03-23T21:17:01.498Z,10.40
2023-03-23T21:19:37.926Z,10.37
2023-03-23T21:22:10.204Z,10.67
2023-03-23T21:24:41.181Z,10.20
2023-03-23T21:27:23.434Z,10.10
2023-03-23T21:29:57.450Z,10.50
2023-03-23T21:32:48.027Z,10.23
2023-03-23T21:35:30.205Z,9.43
2023-03-23T21:38:06.028Z,9.77
2023-03-23T21:40:48.556Z,9.57
2023-03-23T21:43:17.277Z,9.47
2023-03-23T21:45:47.936Z,9.90
2023-03-23T21:48:26.532Z,10.80
2023-03-23T21:50:57.740Z,10.30
2023-03-23T21:53:28.594Z,11.57
2023-03-23T21:56:07.530Z,12.20
2023-03-23T21:58:37.085Z,10.63
2023-03-23T22:01:12.283Z,11.50
2023-03-23T22:03:45.185Z,11.00
2023-03-23T22:06:18.543Z,10.30
2023-03-23T22:08:51.045Z,9.00
2023-03-23T22:11:23.452Z,7.37
2023-03-23T22:13:53.843Z,8.63
2023-03-23T22:16:24.288Z,7.67
2023-03-23T22:19:00.998Z,8.10
2023-03-23T22:21:32.334Z,8.50
2023-03-23T22:24:09.789Z,7.85
2023-03-23T22:26:39.161Z,7.80
2023-03-23T22:29:07.588Z,8.07
2023-03-23T22:31:42.620Z,8.00
2023-03-23T22:34:18.243Z,7.80
2023-03-23T22:36:50.101Z,7.70
2023-03-23T22:39:19.434Z,8.30
2023-03-23T22:41:59.038Z,7.87
2023-03-23T22:44:29.197Z,8.13
2023-03-23T22:46:58.400Z,7.60
2023-03-23T22:49:31.413Z,7.93
2023-03-23T22:52:05.178Z,8.33
2023-03-23T22:54:36.628Z,8.70
2023-03-23T22:57:08.305Z,8.13
2023-03-23T22:59:39.434Z,9.03
2023-03-23T23:02:11.292Z,8.93
2023-03-23T23:04:46.778Z,8.48
2023-03-23T23:07:21.300Z,9.10
2023-03-23T23:09:51.426Z,9.00
2023-03-23T23:12:30.346Z,8.90
2023-03-23T23:15:13.270Z,9.60
2023-03-23T23:17:44.169Z,9.53
2023-03-23T23:20:21.482Z,9.67
2023-03-23T23:22:50.876Z,10.10
2023-03-23T23:25:24.963Z,9.70
2023-03-23T23:27:54.630Z,9.63
2023-03-23T23:30:26.259Z,11.53
2023-03-23T23:32:56.871Z,10.20
2023-03-23T23:35:37.116Z,10.00
2023-03-23T23:38:07.337Z,10.73
2023-03-23T23:40:35.820Z,11.03
2023-03-23T23:43:16.077Z,10.77
2023-03-23T23:45:50.649Z,11.63
2023-03-23T23:48:26.721Z,13.97
2023-03-23T23:51:04.516Z,13.40
2023-03-23T23:53:34.915Z,14.07
2023-03-23T23:56:06.636Z,14.17
2023-03-23T23:58:35.995Z,14.13
